Time;durP1;ratioP1;P1;durP2;ratioP2;P2;SDS_P1;SDS_P2;PMS_P1;PMS_P2;Temp;Humidity;BMP_temperature;BMP_pressure;BME280_temperature;BME280_humidity;BME280_pressure;Samples;Min_cycle;Max_cycle;Signal;HPM_P1;HPM_P2
2024/03/11 00:00:15;;;;;;;11.50;10.80;;;6.90;99.90;;;;;;5051234;28;20203;-79
2024/03/11 00:02:42;;;;;;;10.70;10.10;;;6.90;99.90;;;;;;5051025;28;20248;-79
2024/03/11 00:05:09;;;;;;;10.90;10.30;;;6.80;99.90;;;;;;5052291;28;20260;-79
2024/03/11 00:07:37;;;;;;;10.60;10.00;;;6.80;99.90;;;;;;5051460;28;20289;-79
2024/03/11 00:10:05;;;;;;;10.97;10.27;;;6.90;99.90;;;;;;5049213;28;20301;-79
2024/03/11 00:12:38;;;;;;;10.47;9.87;;;6.90;99.90;;;;;;5037318;28;20294;-79
2024/03/11 00:15:07;;;;;;;11.43;10.47;;;6.90;99.90;;;;;;5049941;28;20705;-79
2024/03/11 00:17:34;;;;;;;10.40;9.70;;;6.90;99.90;;;;;;5045739;28;20678;-79
2024/03/11 00:20:00;;;;;;;10.20;9.60;;;6.80;99.90;;;;;;5050795;28;20733;-79
2024/03/11 00:22:27;;;;;;;10.30;9.70;;;6.90;99.90;;;;;;5052145;28;20206;-79
2024/03/11 00:24:54;;;;;;;10.40;9.80;;;6.90;99.90;;;;;;5042887;28;20234;-79
2024/03/11 00:27:21;;;;;;;10.53;9.93;;;6.80;99.90;;;;;;5051985;28;20187;-79
2024/03/11 00:29:50;;;;;;;10.37;9.77;;;6.80;99.90;;;;;;5051820;28;20203;-79
2024/03/11 00:32:19;;;;;;;10.20;9.70;;;6.80;99.90;;;;;;5046065;28;20209;-79
2024/03/11 00:34:46;;;;;;;10.20;9.67;;;6.80;99.90;;;;;;5050464;28;20678;-79
2024/03/11 00:37:14;;;;;;;10.50;9.90;;;6.70;99.90;;;;;;5050614;28;20253;-79
2024/03/11 00:39:42;;;;;;;9.97;9.47;;;6.70;99.90;;;;;;5051951;28;20213;-79
2024/03/11 00:42:08;;;;;;;10.20;9.70;;;6.70;99.90;;;;;;5051799;28;20573;-79
2024/03/11 00:44:35;;;;;;;10.40;9.70;;;6.70;99.90;;;;;;5049351;28;20214;-79
2024/03/11 00:47:06;;;;;;;10.60;10.00;;;6.70;99.90;;;;;;5050123;28;20653;-79
2024/03/11 00:49:33;;;;;;;10.17;9.67;;;6.60;99.90;;;;;;5051767;28;20731;-79
2024/03/11 00:52:00;;;;;;;10.00;9.47;;;6.60;99.90;;;;;;5051429;28;20197;-79
2024/03/11 00:54:27;;;;;;;9.93;9.43;;;6.60;99.90;;;;;;5050126;28;20728;-79
2024/03/11 00:56:55;;;;;;;9.77;9.27;;;6.50;99.90;;;;;;5042082;28;20203;-79
2024/03/11 00:59:22;;;;;;;9.90;9.40;;;6.50;99.90;;;;;;5050432;28;20217;-79
2024/03/11 01:01:49;;;;;;;9.90;9.40;;;6.50;99.90;;;;;;5050361;28;20206;-79
2024/03/11 01:04:18;;;;;;;10.00;9.40;;;6.40;99.90;;;;;;5042075;28;20240;-79
2024/03/11 01:06:45;;;;;;;10.20;9.50;;;6.40;99.90;;;;;;5050227;28;20282;-79
2024/03/11 01:09:12;;;;;;;9.90;9.40;;;6.40;99.90;;;;;;5051528;28;20202;-79
2024/03/11 01:11:39;;;;;;;10.43;9.83;;;6.30;99.90;;;;;;5049916;28;20197;-79
2024/03/11 01:14:09;;;;;;;9.70;9.20;;;6.30;99.90;;;;;;5049917;28;20214;-79
2024/03/11 01:16:37;;;;;;;9.70;9.20;;;6.30;99.90;;;;;;5050186;28;20682;-79
2024/03/11 01:19:07;;;;;;;9.60;9.10;;;6.30;99.90;;;;;;5049973;28;20201;-79
2024/03/11 01:21:35;;;;;;;9.90;9.40;;;6.30;99.90;;;;;;5051328;28;20719;-79
2024/03/11 01:24:03;;;;;;;9.70;9.20;;;6.30;99.90;;;;;;5035758;28;20182;-79
2024/03/11 01:26:31;;;;;;;9.73;9.23;;;6.20;99.90;;;;;;5050058;28;20202;-79
2024/03/11 01:28:58;;;;;;;9.90;9.40;;;6.30;99.90;;;;;;5051189;28;20202;-79
2024/03/11 01:31:25;;;;;;;9.90;9.30;;;6.20;99.90;;;;;;5050130;28;20277;-79
2024/03/11 01:33:52;;;;;;;9.97;9.47;;;6.20;99.90;;;;;;5051060;28;20631;-79
2024/03/11 01:36:19;;;;;;;9.70;9.20;;;6.20;99.90;;;;;;5049208;28;20646;-79
2024/03/11 01:38:47;;;;;;;9.73;9.23;;;6.20;99.90;;;;;;5044137;28;20249;-79
2024/03/11 01:41:16;;;;;;;10.30;9.70;;;6.20;99.90;;;;;;5053887;28;20263;-79
2024/03/11 01:43:43;;;;;;;9.53;9.03;;;6.20;99.90;;;;;;5053700;28;20585;-79
2024/03/11 01:46:10;;;;;;;10.10;9.50;;;6.20;99.90;;;;;;5046647;28;20654;-79
2024/03/11 01:48:37;;;;;;;9.73;9.23;;;6.20;99.90;;;;;;5053776;28;20217;-79
2024/03/11 01:51:05;;;;;;;9.90;9.40;;;6.20;99.90;;;;;;5049169;28;20640;-79
2024/03/11 01:53:32;;;;;;;10.53;9.80;;;6.20;99.90;;;;;;5048094;28;20685;-79
2024/03/11 01:56:01;;;;;;;10.13;9.63;;;6.20;99.90;;;;;;5042270;28;20758;-79
2024/03/11 01:58:30;;;;;;;10.40;9.80;;;6.30;99.90;;;;;;5053890;28;20264;-79
2024/03/11 02:00:56;;;;;;;10.20;9.60;;;6.20;99.90;;;;;;5045389;28;20199;-79
2024/03/11 02:03:23;;;;;;;10.00;9.50;;;6.30;99.90;;;;;;5050663;28;20632;-79
2024/03/11 02:05:52;;;;;;;9.70;9.20;;;6.30;99.90;;;;;;5053306;28;20217;-79
2024/03/11 02:08:21;;;;;;;9.60;9.10;;;6.20;99.90;;;;;;5053635;28;20256;-79
2024/03/11 02:10:48;;;;;;;10.07;9.50;;;6.20;99.90;;;;;;5053568;28;20210;-79
2024/03/11 02:13:17;;;;;;;9.60;9.10;;;6.20;99.90;;;;;;5054339;28;20248;-79
2024/03/11 02:15:44;;;;;;;10.20;9.60;;;6.10;99.90;;;;;;5044733;28;20708;-79
2024/03/11 02:18:10;;;;;;;10.40;9.80;;;6.10;99.90;;;;;;5052839;28;20225;-79
2024/03/11 02:20:40;;;;;;;10.17;9.67;;;6.00;99.90;;;;;;5053486;28;20265;-79
2024/03/11 02:23:08;;;;;;;10.30;9.70;;;5.90;99.90;;;;;;5052091;28;20240;-78
2024/03/11 02:25:35;;;;;;;10.50;9.70;;;5.90;99.90;;;;;;5050709;28;20210;-79
2024/03/11 02:28:03;;;;;;;9.90;9.40;;;5.80;99.90;;;;;;5046223;28;20281;-79
2024/03/11 02:30:32;;;;;;;9.90;9.30;;;5.70;99.90;;;;;;5052845;28;20292;-79
2024/03/11 02:32:59;;;;;;;9.97;9.30;;;5.60;99.90;;;;;;5052553;28;20206;-79
2024/03/11 02:35:26;;;;;;;10.10;9.30;;;5.60;99.90;;;;;;5052714;28;20632;-79
2024/03/11 02:37:53;;;;;;;9.77;9.27;;;5.60;99.90;;;;;;5053049;28;20252;-79
2024/03/11 02:40:26;;;;;;;10.07;9.57;;;5.60;99.90;;;;;;5052596;28;20200;-79
2024/03/11 02:42:53;;;;;;;9.90;9.40;;;5.60;99.90;;;;;;5052701;28;20289;-79
2024/03/11 02:45:23;;;;;;;9.93;9.43;;;5.50;99.90;;;;;;5050962;28;20213;-79
2024/03/11 02:47:49;;;;;;;10.03;9.53;;;5.50;99.90;;;;;;5050353;28;20198;-79
2024/03/11 02:50:16;;;;;;;10.20;9.60;;;5.40;99.90;;;;;;5052515;28;20274;-79
2024/03/11 02:52:43;;;;;;;9.53;8.90;;;5.40;99.90;;;;;;5052639;28;20232;-79
2024/03/11 02:55:14;;;;;;;10.07;9.47;;;5.40;99.90;;;;;;5045012;28;20227;-79
2024/03/11 02:57:43;;;;;;;9.83;9.33;;;5.40;99.90;;;;;;5052932;28;20193;-79
2024/03/11 03:00:11;;;;;;;9.90;9.40;;;5.40;99.90;;;;;;5047745;28;20229;-79
2024/03/11 03:02:38;;;;;;;9.93;9.43;;;5.40;99.90;;;;;;5052513;28;20716;-79
2024/03/11 03:05:06;;;;;;;9.70;9.20;;;5.30;99.90;;;;;;5052529;28;20236;-79
2024/03/11 03:07:33;;;;;;;9.83;9.30;;;5.30;99.90;;;;;;5054008;28;20248;-79
2024/03/11 03:10:00;;;;;;;10.00;9.40;;;5.30;99.90;;;;;;5050812;28;20222;-79
2024/03/11 03:12:29;;;;;;;10.40;9.80;;;5.30;99.90;;;;;;5053928;28;20211;-79
2024/03/11 03:14:58;;;;;;;9.73;9.23;;;5.20;99.90;;;;;;5053816;28;20242;-79
2024/03/11 03:17:24;;;;;;;10.00;9.50;;;5.20;99.90;;;;;;5049225;28;20206;-79
2024/03/11 03:19:51;;;;;;;9.83;9.33;;;5.20;99.90;;;;;;5047479;28;20197;-79
2024/03/11 03:22:18;;;;;;;9.90;9.40;;;5.20;99.90;;;;;;5042927;28;20251;-79
2024/03/11 03:24:45;;;;;;;10.07;9.57;;;5.10;99.90;;;;;;5046583;28;20215;-79
2024/03/11 03:27:12;;;;;;;9.60;9.10;;;5.10;99.90;;;;;;5077961;28;20215;-79
2024/03/11 03:29:40;;;;;;;9.70;9.20;;;5.10;99.90;;;;;;5045759;28;20294;-79
2024/03/11 03:32:09;;;;;;;10.37;9.67;;;5.10;99.90;;;;;;5053043;28;20677;-79
2024/03/11 03:34:36;;;;;;;9.80;9.20;;;5.10;99.90;;;;;;5042102;28;20217;-79
2024/03/11 03:37:03;;;;;;;10.10;9.53;;;5.00;99.90;;;;;;5045638;28;20681;-79
2024/03/11 03:39:30;;;;;;;10.03;9.50;;;5.00;99.90;;;;;;5052134;28;20584;-79
2024/03/11 03:41:58;;;;;;;9.93;9.43;;;5.00;99.90;;;;;;5050166;28;20192;-79
2024/03/11 03:44:25;;;;;;;9.77;9.27;;;5.00;99.90;;;;;;5053407;28;20291;-79
2024/03/11 03:46:52;;;;;;;9.80;9.30;;;5.00;99.90;;;;;;5051689;28;20260;-78
2024/03/11 03:49:21;;;;;;;10.40;9.80;;;5.00;99.90;;;;;;5054339;28;20202;-78
2024/03/11 03:51:51;;;;;;;10.10;9.60;;;4.90;99.90;;;;;;5048214;28;20829;-77
2024/03/11 03:54:19;;;;;;;10.47;9.80;;;5.00;99.90;;;;;;5054774;28;20208;-79
2024/03/11 03:56:46;;;;;;;10.23;9.70;;;4.90;99.90;;;;;;5053467;28;20205;-79
2024/03/11 03:59:13;;;;;;;10.47;9.87;;;4.90;99.90;;;;;;5049877;28;20213;-76
2024/03/11 04:01:40;;;;;;;10.63;9.90;;;4.90;99.90;;;;;;5053909;28;20428;-79
2024/03/11 04:04:07;;;;;;;10.23;9.63;;;4.80;99.90;;;;;;5052367;28;20230;-79
2024/03/11 04:06:35;;;;;;;10.10;9.60;;;4.80;99.90;;;;;;5053914;28;20193;-79
2024/03/11 04:09:01;;;;;;;10.63;10.03;;;4.70;99.90;;;;;;5053822;28;20220;-79
2024/03/11 04:11:28;;;;;;;10.00;9.40;;;4.70;99.90;;;;;;5053391;28;20668;-79
2024/03/11 04:13:55;;;;;;;9.90;9.30;;;4.70;99.90;;;;;;5053641;28;20195;-78
2024/03/11 04:16:22;;;;;;;10.00;9.50;;;4.60;99.90;;;;;;5052970;28;20248;-79
2024/03/11 04:18:49;;;;;;;9.97;9.37;;;4.50;99.90;;;;;;5051365;28;20664;-78
2024/03/11 04:21:16;;;;;;;10.40;9.80;;;4.50;99.90;;;;;;5051988;28;20259;-77
2024/03/11 04:23:45;;;;;;;10.40;9.70;;;4.40;99.90;;;;;;5054316;28;20188;-77
2024/03/11 04:26:12;;;;;;;10.73;10.13;;;4.40;99.90;;;;;;5049233;28;20230;-77
2024/03/11 04:28:39;;;;;;;10.60;10.00;;;4.30;99.90;;;;;;5039092;28;20277;-76
2024/03/11 04:31:05;;;;;;;10.67;10.07;;;4.30;99.90;;;;;;5052456;28;20254;-77
2024/03/11 04:33:33;;;;;;;10.70;10.00;;;4.30;99.90;;;;;;5052491;28;20748;-78
2024/03/11 04:36:00;;;;;;;11.53;10.83;;;4.30;99.90;;;;;;5052309;28;20255;-78
2024/03/11 04:38:27;;;;;;;11.30;10.50;;;4.30;99.90;;;;;;5045641;28;20255;-76
2024/03/11 04:40:56;;;;;;;11.43;10.73;;;4.30;99.90;;;;;;5040106;28;20254;-78
2024/03/11 04:43:23;;;;;;;10.60;10.00;;;4.30;99.90;;;;;;5050105;28;20269;-78
2024/03/11 04:45:50;;;;;;;11.03;10.43;;;4.30;99.90;;;;;;5041227;28;20229;-78
2024/03/11 04:48:19;;;;;;;11.80;11.10;;;4.20;99.90;;;;;;5047851;28;20196;-77
2024/03/11 04:50:47;;;;;;;11.50;10.90;;;4.20;99.90;;;;;;5051615;28;20204;-78
2024/03/11 04:53:15;;;;;;;11.00;10.40;;;4.20;99.90;;;;;;5050910;28;20200;-78
2024/03/11 04:55:43;;;;;;;10.80;10.20;;;4.20;99.90;;;;;;5049492;28;20222;-78
2024/03/11 04:58:11;;;;;;;10.70;10.00;;;4.20;99.90;;;;;;5041808;28;20700;-78
2024/03/11 05:00:38;;;;;;;11.23;10.63;;;4.10;99.90;;;;;;5049399;28;20193;-78
2024/03/11 05:03:05;;;;;;;10.83;10.20;;;4.10;99.90;;;;;;5042759;28;20200;-78
2024/03/11 05:05:35;;;;;;;11.77;11.00;;;4.10;99.90;;;;;;5049873;28;20223;-78
2024/03/11 05:08:04;;;;;;;11.30;10.60;;;4.10;99.90;;;;;;5050113;28;20195;-78
2024/03/11 05:10:31;;;;;;;11.33;10.63;;;4.10;99.90;;;;;;5049748;28;20262;-78
2024/03/11 05:12:58;;;;;;;11.50;10.80;;;4.10;99.90;;;;;;5053327;28;20188;-77
2024/03/11 05:15:27;;;;;;;12.03;11.33;;;4.10;99.90;;;;;;5054902;28;20228;-77
2024/03/11 05:17:53;;;;;;;11.97;11.27;;;4.10;99.90;;;;;;5053643;28;20664;-77
2024/03/11 05:20:20;;;;;;;11.73;10.90;;;4.10;99.90;;;;;;5052070;28;20204;-78
2024/03/11 05:22:48;;;;;;;12.03;11.30;;;4.10;99.90;;;;;;5055943;28;20192;-78
2024/03/11 05:25:15;;;;;;;12.47;11.77;;;4.10;99.90;;;;;;5054775;28;20255;-78
2024/03/11 05:27:44;;;;;;;12.50;11.70;;;4.10;99.90;;;;;;5063233;28;20204;-76
2024/03/11 05:30:11;;;;;;;12.53;11.73;;;4.10;99.90;;;;;;5045908;28;20258;-77
2024/03/11 05:32:40;;;;;;;12.13;11.43;;;4.10;99.90;;;;;;5052636;28;20205;-78
2024/03/11 05:35:07;;;;;;;12.50;11.70;;;4.10;99.90;;;;;;5051614;28;20710;-78
2024/03/11 05:37:34;;;;;;;12.10;11.40;;;4.10;99.90;;;;;;5052764;28;20666;-78
2024/03/11 05:40:05;;;;;;;11.90;11.20;;;4.10;99.90;;;;;;5055453;28;20250;-79
2024/03/11 05:42:32;;;;;;;12.10;11.40;;;4.10;99.90;;;;;;5054328;28;20205;-79
2024/03/11 05:44:59;;;;;;;11.77;11.07;;;4.10;99.90;;;;;;5054196;28;20228;-80
2024/03/11 05:47:26;;;;;;;12.93;12.10;;;4.10;99.90;;;;;;5055267;28;20197;-79
2024/03/11 05:49:54;;;;;;;12.47;11.67;;;4.10;99.90;;;;;;5055862;28;20192;-79
2024/03/11 05:52:24;;;;;;;12.10;11.40;;;4.10;99.90;;;;;;5053486;28;20622;-79
2024/03/11 05:54:52;;;;;;;11.93;11.23;;;4.10;99.90;;;;;;5043707;28;20228;-79
2024/03/11 05:57:23;;;;;;;12.47;11.67;;;4.10;99.90;;;;;;5054555;28;20199;-79
2024/03/11 05:59:51;;;;;;;12.90;12.00;;;4.10;99.90;;;;;;5054109;28;20253;-78
2024/03/11 06:02:18;;;;;;;13.20;12.30;;;4.00;99.90;;;;;;5053467;28;20262;-79
2024/03/11 06:04:45;;;;;;;12.90;12.10;;;4.10;99.90;;;;;;5054118;28;20212;-79
2024/03/11 06:07:14;;;;;;;12.27;11.53;;;4.00;99.90;;;;;;5053991;28;20304;-79
2024/03/11 06:09:41;;;;;;;12.70;11.90;;;4.00;99.90;;;;;;5049692;28;20259;-79
2024/03/11 06:12:10;;;;;;;13.47;12.47;;;4.00;99.90;;;;;;5053441;28;20294;-79
2024/03/11 06:14:37;;;;;;;13.10;12.30;;;4.00;99.90;;;;;;5053425;28;20211;-79
2024/03/11 06:17:07;;;;;;;12.57;11.77;;;4.00;99.90;;;;;;5053569;28;20228;-79
2024/03/11 06:19:33;;;;;;;12.90;12.10;;;4.10;99.90;;;;;;5051597;28;20205;-79
2024/03/11 06:22:00;;;;;;;12.47;11.67;;;4.10;99.90;;;;;;5043132;28;20231;-79
2024/03/11 06:24:30;;;;;;;13.23;12.30;;;4.20;99.90;;;;;;5045259;28;20224;-79
2024/03/11 06:26:57;;;;;;;12.30;11.50;;;4.40;99.90;;;;;;5046713;28;20201;-79
2024/03/11 06:29:26;;;;;;;12.77;11.97;;;4.60;99.90;;;;;;5053461;28;20209;-79
2024/03/11 06:31:53;;;;;;;13.03;12.13;;;4.90;99.90;;;;;;5047327;28;20193;-79
2024/03/11 06:34:21;;;;;;;12.43;11.57;;;5.10;99.90;;;;;;5053654;28;20625;-79
2024/03/11 06:36:48;;;;;;;13.10;12.20;;;5.40;99.90;;;;;;5046408;28;20245;-79
2024/03/11 06:39:15;;;;;;;13.20;12.30;;;5.60;99.90;;;;;;5053594;28;20216;-80
2024/03/11 06:41:44;;;;;;;13.17;12.27;;;5.80;99.90;;;;;;5054934;28;20197;-79
2024/03/11 06:44:11;;;;;;;13.40;12.40;;;6.00;99.90;;;;;;5053284;28;20203;-79
2024/03/11 06:46:38;;;;;;;12.50;11.70;;;6.20;99.90;;;;;;5054656;28;20226;-80
2024/03/11 06:49:05;;;;;;;12.60;11.80;;;6.40;99.90;;;;;;5054782;28;20673;-80
2024/03/11 06:51:32;;;;;;;12.50;11.70;;;6.60;99.90;;;;;;5044858;28;20207;-80
2024/03/11 06:53:59;;;;;;;12.37;11.60;;;6.80;99.90;;;;;;5053701;28;20218;-80
2024/03/11 06:56:27;;;;;;;12.47;11.67;;;7.00;99.90;;;;;;5037463;28;20308;-79
2024/03/11 06:58:57;;;;;;;11.87;11.07;;;7.10;99.90;;;;;;5049084;28;20233;-79
2024/03/11 07:01:27;;;;;;;11.77;11.03;;;7.20;99.90;;;;;;5053254;28;20230;-80
2024/03/11 07:03:54;;;;;;;11.83;11.13;;;7.30;99.90;;;;;;5054056;28;20285;-79
2024/03/11 07:06:22;;;;;;;11.50;10.80;;;7.50;99.90;;;;;;5044797;28;20226;-80
2024/03/11 07:08:50;;;;;;;12.03;11.20;;;7.60;99.90;;;;;;5052670;28;20188;-80
2024/03/11 07:11:16;;;;;;;11.43;10.73;;;7.80;99.90;;;;;;5050789;28;20252;-80
2024/03/11 07:13:43;;;;;;;11.87;11.17;;;7.80;99.90;;;;;;5052034;28;20203;-80
2024/03/11 07:16:12;;;;;;;11.97;11.27;;;8.00;99.90;;;;;;5053773;28;20227;-80
2024/03/11 07:18:39;;;;;;;12.33;11.60;;;8.20;99.90;;;;;;5052562;28;20657;-80
2024/03/11 07:21:06;;;;;;;11.50;10.83;;;8.40;99.90;;;;;;5053830;28;20203;-79
2024/03/11 07:23:33;;;;;;;11.50;10.80;;;8.70;99.90;;;;;;5052630;28;20214;-80
2024/03/11 07:26:01;;;;;;;11.23;10.47;;;9.10;99.90;;;;;;5053488;28;20577;-80
2024/03/11 07:28:29;;;;;;;10.03;9.43;;;9.30;99.90;;;;;;5052486;28;20553;-80
2024/03/11 07:30:56;;;;;;;5.63;4.80;;;9.60;99.90;;;;;;5052885;28;20206;-80
2024/03/11 07:33:24;;;;;;;7.00;6.40;;;9.90;99.90;;;;;;5053195;28;20192;-80
2024/03/11 07:35:53;;;;;;;10.63;9.93;;;10.20;99.90;;;;;;5051794;28;20602;-80
2024/03/11 07:38:23;;;;;;;11.13;10.23;;;10.30;99.90;;;;;;5052586;28;20232;-80
2024/03/11 07:40:50;;;;;;;9.80;9.20;;;10.60;99.90;;;;;;5050885;28;20304;-81
2024/03/11 07:43:17;;;;;;;10.47;9.80;;;10.80;99.90;;;;;;5041123;28;20198;-81
2024/03/11 07:45:44;;;;;;;11.30;10.50;;;11.00;99.90;;;;;;5053286;28;20223;-80
2024/03/11 07:48:12;;;;;;;4.53;4.13;;;11.30;99.90;;;;;;5052366;28;20540;-81
2024/03/11 07:50:42;;;;;;;10.67;9.97;;;11.80;99.90;;;;;;5051954;28;20192;-81
2024/03/11 07:53:08;;;;;;;4.73;4.43;;;11.90;99.90;;;;;;5053486;28;20241;-81
2024/03/11 07:55:37;;;;;;;11.07;10.37;;;12.20;99.90;;;;;;5050638;28;20224;-81
2024/03/11 07:58:06;;;;;;;8.67;8.17;;;12.60;99.90;;;;;;5045306;28;20291;-81
2024/03/11 08:00:36;;;;;;;6.87;6.47;;;12.70;99.90;;;;;;5052205;28;20229;-81
2024/03/11 08:03:04;;;;;;;10.20;9.50;;;12.80;99.90;;;;;;5053659;28;20224;-80
2024/03/11 08:05:31;;;;;;;9.70;9.10;;;13.10;99.90;;;;;;5050246;28;20257;-78
2024/03/11 08:07:59;;;;;;;3.20;2.47;;;13.20;99.90;;;;;;5047318;28;20203;-78
2024/03/11 08:10:26;;;;;;;2.30;2.20;;;13.20;99.90;;;;;;5044763;28;20227;-80
2024/03/11 08:12:57;;;;;;;9.00;8.50;;;13.50;99.90;;;;;;5046461;28;20214;-80
2024/03/11 08:15:25;;;;;;;2.63;2.43;;;13.90;99.90;;;;;;5048846;28;20331;-80
2024/03/11 08:17:52;;;;;;;8.83;8.23;;;14.10;99.90;;;;;;5040680;28;20221;-79
2024/03/11 08:20:21;;;;;;;8.83;8.27;;;14.30;99.90;;;;;;5045633;28;20673;-79
2024/03/11 08:22:52;;;;;;;9.07;8.57;;;14.40;99.90;;;;;;5050773;28;20301;-79
2024/03/11 08:25:22;;;;;;;9.40;8.90;;;14.30;99.90;;;;;;5051226;28;20297;-80
2024/03/11 08:27:51;;;;;;;8.90;8.40;;;14.50;99.90;;;;;;5050478;28;20221;-79
2024/03/11 08:30:18;;;;;;;9.80;9.20;;;14.70;99.90;;;;;;5045354;28;20578;-79
2024/03/11 08:32:47;;;;;;;12.67;11.97;;;15.00;99.90;;;;;;5050149;28;20203;-79
2024/03/11 08:35:14;;;;;;;9.10;8.60;;;15.00;99.90;;;;;;5051841;28;20226;-79
2024/03/11 08:37:41;;;;;;;9.13;8.63;;;14.90;99.90;;;;;;5051080;28;20246;-79
2024/03/11 08:40:10;;;;;;;9.00;8.30;;;14.90;99.90;;;;;;5043939;28;20303;-81
2024/03/11 08:42:39;;;;;;;8.33;7.93;;;14.90;99.90;;;;;;5051459;28;20210;-80
2024/03/11 08:45:08;;;;;;;8.53;8.03;;;15.00;99.90;;;;;;5052118;28;20215;-80
2024/03/11 08:47:35;;;;;;;7.97;7.57;;;15.10;99.90;;;;;;5049167;28;20336;-79
2024/03/11 08:50:07;;;;;;;8.40;7.90;;;15.20;99.90;;;;;;5052248;28;20219;-80
2024/03/11 08:52:35;;;;;;;8.20;7.70;;;15.20;99.90;;;;;;5052279;28;20644;-80
2024/03/11 08:55:05;;;;;;;8.20;7.80;;;15.30;99.90;;;;;;5051983;28;20230;-80
2024/03/11 08:57:32;;;;;;;8.37;7.87;;;15.40;99.90;;;;;;5047815;28;20214;-80
2024/03/11 09:00:03;;;;;;;6.93;6.53;;;15.50;99.90;;;;;;5043558;28;20253;-80
2024/03/11 09:02:32;;;;;;;7.30;6.90;;;15.50;99.90;;;;;;5045582;28;20663;-79
2024/03/11 09:04:59;;;;;;;7.57;6.90;;;15.60;99.90;;;;;;5051202;28;20759;-80
2024/03/11 09:07:26;;;;;;;7.13;6.73;;;15.40;99.90;;;;;;5052628;28;20199;-81
2024/03/11 09:09:56;;;;;;;7.20;6.80;;;15.60;99.90;;;;;;5051272;28;20294;-80
2024/03/11 09:12:23;;;;;;;7.00;6.60;;;15.50;99.90;;;;;;5051826;28;20285;-79
2024/03/11 09:14:52;;;;;;;7.60;7.10;;;15.70;99.90;;;;;;5051481;28;20218;-79
2024/03/11 09:17:20;;;;;;;7.50;7.10;;;16.00;99.90;;;;;;5051821;28;20725;-82
2024/03/11 09:19:47;;;;;;;7.70;7.20;;;16.00;99.90;;;;;;5043658;28;20251;-80
2024/03/11 09:22:16;;;;;;;7.67;7.17;;;15.80;99.90;;;;;;5050095;28;20677;-82
2024/03/11 09:24:47;;;;;;;8.17;7.67;;;15.90;99.90;;;;;;5083703;28;20518;-80
2024/03/11 09:27:13;;;;;;;7.87;7.37;;;16.10;99.90;;;;;;5044299;28;20215;-80
2024/03/11 09:29:40;;;;;;;7.87;7.37;;;16.20;99.90;;;;;;5051697;28;20668;-80
2024/03/11 09:32:08;;;;;;;7.83;7.33;;;16.10;99.90;;;;;;5043861;28;20234;-80
2024/03/11 09:34:36;;;;;;;7.77;7.30;;;16.20;99.90;;;;;;5050440;28;20303;-80
2024/03/11 09:37:03;;;;;;;7.50;7.10;;;16.10;99.90;;;;;;5050047;28;20201;-80
2024/03/11 09:39:30;;;;;;;7.53;7.13;;;16.20;99.90;;;;;;5050239;28;20225;-80
2024/03/11 09:42:04;;;;;;;8.17;7.67;;;16.30;99.90;;;;;;5043572;28;20225;-80
2024/03/11 09:44:32;;;;;;;7.43;7.00;;;16.20;99.90;;;;;;5050701;28;20233;-81
2024/03/11 09:47:00;;;;;;;7.53;7.13;;;16.30;99.90;;;;;;5051025;28;20659;-81
2024/03/11 09:49:27;;;;;;;7.70;7.30;;;16.10;99.90;;;;;;5051541;28;20204;-80
2024/03/11 09:52:01;;;;;;;8.00;7.50;;;15.90;99.90;;;;;;5051259;28;20200;-80
2024/03/11 09:54:28;;;;;;;8.87;8.27;;;16.20;99.90;;;;;;5050087;28;20254;-80
2024/03/11 09:56:56;;;;;;;8.57;8.07;;;15.80;99.90;;;;;;5050735;28;20195;-80
2024/03/11 09:59:24;;;;;;;9.07;8.57;;;15.70;99.90;;;;;;5052792;28;20256;-81
2024/03/11 10:01:53;;;;;;;8.70;8.10;;;15.80;99.90;;;;;;5038238;28;20204;-81
2024/03/11 10:04:22;;;;;;;7.90;7.50;;;15.90;99.90;;;;;;5047546;28;20210;-81
2024/03/11 10:07:04;;;;;;;8.20;7.70;;;15.80;99.90;;;;;;5050899;28;20272;-81
2024/03/11 10:09:32;;;;;;;8.37;7.87;;;15.40;99.90;;;;;;5052100;28;20606;-81
2024/03/11 10:12:03;;;;;;;7.67;7.27;;;15.40;99.90;;;;;;5053682;28;20237;-81
2024/03/11 10:14:34;;;;;;;7.80;7.30;;;15.50;99.90;;;;;;5035805;28;20418;-81
2024/03/11 10:17:21;;;;;;;7.53;7.07;;;15.60;99.90;;;;;;5049031;28;20649;-81
2024/03/11 10:19:51;;;;;;;7.97;7.47;;;15.50;99.90;;;;;;5045715;28;20210;-81
2024/03/11 10:22:26;;;;;;;7.73;7.33;;;15.40;99.90;;;;;;5053697;28;20298;-81
2024/03/11 10:24:55;;;;;;;7.30;6.90;;;15.40;99.90;;;;;;5052191;28;20218;-80
2024/03/11 10:27:23;;;;;;;7.37;6.97;;;15.20;99.90;;;;;;5043267;28;20230;-81
2024/03/11 10:29:50;;;;;;;7.60;7.10;;;15.10;99.90;;;;;;5053348;28;20283;-80
2024/03/11 10:32:36;;;;;;;7.77;7.10;;;14.90;99.90;;;;;;5049709;28;20199;-81
2024/03/11 10:35:04;;;;;;;7.40;7.00;;;14.80;99.90;;;;;;5051317;28;20230;-81
2024/03/11 10:37:32;;;;;;;7.17;6.77;;;14.60;99.90;;;;;;5049230;28;20285;-81
2024/03/11 10:40:00;;;;;;;8.47;7.97;;;14.60;99.90;;;;;;5053676;28;20249;-81
2024/03/11 10:42:32;;;;;;;7.60;7.20;;;14.60;99.90;;;;;;5053854;28;20206;-81
2024/03/11 10:44:59;;;;;;;8.53;8.10;;;14.90;99.90;;;;;;5053890;28;20227;-81
2024/03/11 10:47:28;;;;;;;9.10;8.60;;;14.90;99.90;;;;;;5048331;28;20216;-81
2024/03/11 10:49:58;;;;;;;8.10;7.70;;;14.80;99.90;;;;;;5055243;28;20204;-80
2024/03/11 10:52:26;;;;;;;8.20;7.70;;;15.00;99.90;;;;;;5056077;28;20253;-81
2024/03/11 10:54:55;;;;;;;8.00;7.50;;;15.00;99.90;;;;;;5053733;28;20281;-81
2024/03/11 10:57:33;;;;;;;7.70;7.30;;;15.00;99.90;;;;;;5049457;28;20196;-81
2024/03/11 11:00:02;;;;;;;7.13;6.73;;;15.20;99.90;;;;;;5055251;28;20282;-81
2024/03/11 11:02:32;;;;;;;7.47;7.07;;;15.30;99.90;;;;;;5053272;28;20205;-81
2024/03/11 11:05:05;;;;;;;7.10;6.70;;;15.20;99.90;;;;;;5053551;28;20223;-81
2024/03/11 11:07:33;;;;;;;6.93;6.53;;;15.20;99.90;;;;;;5053778;28;20218;-81
2024/03/11 11:10:03;;;;;;;7.70;7.30;;;15.20;99.90;;;;;;5049966;28;20213;-81
2024/03/11 11:12:31;;;;;;;7.50;7.10;;;15.20;99.90;;;;;;5054651;28;20205;-81
2024/03/11 11:15:00;;;;;;;7.73;7.30;;;15.30;99.90;;;;;;5042921;28;20211;-81
2024/03/11 11:17:29;;;;;;;7.80;7.30;;;15.30;99.90;;;;;;5046900;28;20644;-80
2024/03/11 11:19:58;;;;;;;7.77;7.37;;;15.20;99.90;;;;;;5052776;28;20191;-80
2024/03/11 11:22:26;;;;;;;7.67;7.27;;;15.00;99.90;;;;;;5046538;28;20217;-80
2024/03/11 11:24:53;;;;;;;7.60;7.20;;;14.60;99.90;;;;;;5054347;28;20715;-80
2024/03/11 11:27:27;;;;;;;7.70;7.20;;;14.30;99.90;;;;;;5052960;28;20225;-81
2024/03/11 11:30:13;;;;;;;7.90;7.40;;;14.20;99.90;;;;;;5052164;28;20198;-80
2024/03/11 11:32:42;;;;;;;7.67;7.27;;;13.90;99.90;;;;;;5051834;28;20220;-81
2024/03/11 11:35:09;;;;;;;5.57;5.27;;;13.80;99.90;;;;;;5051069;28;20371;-80
2024/03/11 11:37:39;;;;;;;8.50;7.90;;;13.60;99.90;;;;;;5052992;28;20726;-80
2024/03/11 11:40:33;;;;;;;8.20;7.70;;;13.50;99.90;;;;;;5050445;28;20293;-81
2024/03/11 11:43:05;;;;;;;7.80;7.30;;;13.40;99.90;;;;;;5050542;28;20261;-81
2024/03/11 11:45:54;;;;;;;7.77;7.37;;;13.30;99.90;;;;;;5054218;28;20227;-81
2024/03/11 11:48:31;;;;;;;7.70;7.30;;;13.30;99.90;;;;;;5053921;28;20590;-81
2024/03/11 11:50:58;;;;;;;8.00;7.60;;;13.30;99.90;;;;;;5044706;28;20671;-81
2024/03/11 11:53:27;;;;;;;7.80;7.37;;;13.30;99.90;;;;;;5052987;28;20213;-80
2024/03/11 11:55:55;;;;;;;8.00;7.60;;;13.40;99.90;;;;;;5052322;28;20228;-80
2024/03/11 11:58:23;;;;;;;8.10;7.60;;;13.60;99.90;;;;;;5053003;28;20233;-81
2024/03/11 12:00:59;;;;;;;8.87;8.33;;;13.80;99.90;;;;;;5053294;28;20192;-80
2024/03/11 12:03:30;;;;;;;7.90;7.50;;;14.10;99.90;;;;;;5047837;28;20221;-81
2024/03/11 12:06:11;;;;;;;7.20;6.80;;;14.40;99.90;;;;;;5044266;28;20230;-81
2024/03/11 12:08:39;;;;;;;8.20;7.67;;;14.80;99.90;;;;;;5052334;28;20214;-81
2024/03/11 12:11:11;;;;;;;7.80;7.40;;;14.80;99.90;;;;;;5052008;28;20208;-80
2024/03/11 12:13:41;;;;;;;7.70;7.30;;;14.80;99.90;;;;;;5042722;28;20210;-81
2024/03/11 12:16:10;;;;;;;7.90;7.50;;;14.60;99.90;;;;;;5048228;28;20281;-81
2024/03/11 12:18:39;;;;;;;7.80;7.40;;;14.40;99.90;;;;;;5047248;28;20192;-81
2024/03/11 12:21:08;;;;;;;7.70;7.10;;;14.20;99.90;;;;;;5049881;28;20665;-80
2024/03/11 12:23:36;;;;;;;7.90;7.40;;;14.00;99.90;;;;;;5051935;28;20194;-80
2024/03/11 12:26:04;;;;;;;7.47;7.07;;;13.80;99.90;;;;;;5043233;28;20809;-81
2024/03/11 12:28:31;;;;;;;7.70;7.20;;;13.70;99.90;;;;;;5053001;28;20306;-81
2024/03/11 12:31:00;;;;;;;7.90;7.50;;;13.60;99.90;;;;;;5051547;28;20698;-80
2024/03/11 12:33:28;;;;;;;7.60;7.20;;;13.50;99.90;;;;;;5047724;28;20278;-81
2024/03/11 12:35:58;;;;;;;8.23;7.77;;;13.50;99.90;;;;;;5057409;28;20272;-80
2024/03/11 12:38:29;;;;;;;8.10;7.60;;;13.60;99.90;;;;;;5051923;28;20206;-80
2024/03/11 12:40:57;;;;;;;7.60;7.20;;;13.50;99.90;;;;;;5043989;28;20200;-81
2024/03/11 12:43:31;;;;;;;7.87;7.47;;;13.60;99.90;;;;;;5054030;28;20476;-81
2024/03/11 12:46:02;;;;;;;7.60;7.20;;;13.80;99.90;;;;;;5041903;28;20225;-80
2024/03/11 12:48:29;;;;;;;8.30;7.80;;;14.00;99.90;;;;;;5045307;28;20224;-81
2024/03/11 12:50:58;;;;;;;7.80;7.40;;;14.00;99.90;;;;;;5051483;28;20289;-81